Time;durP1;ratioP1;P1;durP2;ratioP2;P2;SDS_P1;SDS_P2;PMS_P1;PMS_P2;Temp;Humidity;BMP_temperature;BMP_pressure;BME280_temperature;BME280_humidity;BME280_pressure;Samples;Min_cycle;Max_cycle;Signal;HPM_P1;HPM_P2
2021/09/30 00:00:42;;;;;;;48.87;34.88;;;;;;;12.34;70.94;101330.02;1649542;86;20176;-82
2021/09/30 00:03:10;;;;;;;47.80;33.83;;;;;;;12.36;70.46;101327.41;1647841;86;21839;-82
2021/09/30 00:05:38;;;;;;;51.00;36.17;;;;;;;12.36;70.51;101328.70;1609992;87;22198;-82
2021/09/30 00:08:23;;;;;;;48.45;33.33;;;;;;;12.36;70.58;101339.94;1639920;86;20926;-82
2021/09/30 00:10:59;;;;;;;43.83;32.83;;;;;;;12.38;70.73;101348.55;1617218;86;21473;-82
2021/09/30 00:32:30;;;;;;;42.67;32.03;;;;;;;12.45;70.86;101345.02;1602832;88;21445;-81
2021/09/30 00:34:45;;;;;;;35.65;26.25;;;;;;;12.45;71.12;101357.12;1756081;81;21301;-81
2021/09/30 00:40:14;;;;;;;34.43;27.05;;;;;;;12.42;71.28;101367.09;1636683;86;22248;-81
2021/09/30 00:50:33;;;;;;;34.80;24.20;;;;;;;12.32;71.42;101381.05;1636758;86;21547;-81
2021/09/30 02:34:44;;;;;;;10.68;8.50;;;;;;;11.49;73.49;101472.87;1528650;92;20146;-82
2021/09/30 02:39:29;;;;;;;9.28;8.48;;;;;;;11.50;73.23;101487.97;1532709;92;21007;-82
2021/09/30 02:58:40;;;;;;;7.33;5.53;;;;;;;11.34;73.53;101503.20;1534899;86;21098;-82
2021/09/30 03:01:19;;;;;;;5.45;4.95;;;;;;;11.32;73.58;101508.37;1659650;85;21043;-82
2021/09/30 03:03:47;;;;;;;7.67;5.33;;;;;;;11.33;73.60;101505.36;1664279;85;21112;-82
2021/09/30 03:06:13;;;;;;;5.28;4.87;;;;;;;11.33;73.67;101503.63;1648517;85;20983;-82
2021/09/30 03:08:43;;;;;;;5.25;4.80;;;;;;;11.32;73.69;101499.32;1664183;85;20996;-82
2021/09/30 03:11:10;;;;;;;5.60;5.10;;;;;;;11.33;73.71;101498.89;1668802;85;21058;-82
2021/09/30 03:13:38;;;;;;;5.30;4.80;;;;;;;11.33;73.76;101504.06;1661601;85;21125;-82
2021/09/30 03:16:16;;;;;;;5.00;4.50;;;;;;;11.33;73.76;101509.24;1661021;85;21074;-82
2021/09/30 03:23:35;;;;;;;4.22;3.87;;;;;;;11.28;73.87;101505.38;1617470;87;21164;-82
2021/09/30 03:26:02;;;;;;;4.78;4.08;;;;;;;11.26;73.85;101509.27;1641522;87;21024;-82
2021/09/30 03:28:31;;;;;;;4.40;3.55;;;;;;;11.27;73.93;101515.31;1641439;86;21708;-82
2021/09/30 03:31:01;;;;;;;4.12;3.72;;;;;;;11.26;73.94;101521.35;1636475;86;20939;-82
2021/09/30 03:33:29;;;;;;;4.30;3.22;;;;;;;11.22;73.96;101528.27;1648082;85;20900;-82
2021/09/30 03:35:55;;;;;;;3.70;3.40;;;;;;;11.21;74.00;101536.91;1640121;86;20977;-82
2021/09/30 03:38:22;;;;;;;5.47;3.67;;;;;;;11.20;74.03;101542.95;1643621;87;20919;-82
2021/09/30 03:40:49;;;;;;;;;;;;;;;11.20;74.06;101542.95;1645966;87;20878;-82
2021/09/30 03:43:16;;;;;;;6.05;3.10;;;;;;;11.19;74.36;101553.31;1643743;87;20132;-82
2021/09/30 03:45:42;;;;;;;6.50;3.00;;;;;;;11.16;74.11;101550.30;1643124;87;20928;-81
2021/09/30 03:48:09;;;;;;;3.33;2.50;;;;;;;11.16;74.16;101554.61;1643504;87;20886;-81
2021/09/30 03:50:48;;;;;;;6.45;3.05;;;;;;;11.11;74.12;101557.22;1643498;87;20903;-81
2021/09/30 03:53:15;;;;;;;5.42;2.80;;;;;;;11.11;74.21;101561.53;1620929;87;20904;-81
2021/09/30 04:00:55;;;;;;;4.33;2.75;;;;;;;11.07;74.21;101560.67;1594763;89;20949;-81
2021/09/30 04:03:21;;;;;;;2.12;1.92;;;;;;;11.06;74.26;101576.21;1585554;88;20937;-81
2021/09/30 04:05:47;;;;;;;2.40;2.13;;;;;;;11.04;74.29;101580.53;1602124;88;20949;-81
2021/09/30 04:08:14;;;;;;;4.03;2.37;;;;;;;11.02;74.34;101570.18;1596753;88;20942;-82
2021/09/30 04:10:40;;;;;;;1.90;1.80;;;;;;;11.01;74.33;101574.92;1598231;88;20956;-82
2021/09/30 04:13:06;;;;;;;2.20;2.00;;;;;;;10.94;74.34;101569.34;1599486;88;21358;-83
2021/09/30 04:15:33;;;;;;;;;;;;;;;10.95;74.40;101581.41;1591472;88;20905;-83
2021/09/30 04:17:59;;;;;;;2.58;1.60;;;;;;;10.93;74.66;101591.77;1597425;88;20130;-83
2021/09/30 04:20:27;;;;;;;1.70;1.50;;;;;;;10.90;74.43;101590.51;1598855;88;20902;-82
2021/09/30 04:22:53;;;;;;;2.27;1.70;;;;;;;10.89;74.47;101590.51;1590958;88;20953;-82
2021/09/30 04:25:19;;;;;;;2.12;1.50;;;;;;;10.86;74.43;101594.39;1573641;89;20922;-82
2021/09/30 04:27:45;;;;;;;1.77;1.63;;;;;;;10.84;74.51;101592.24;1641382;85;21392;-82
2021/09/30 04:30:12;;;;;;;2.03;1.40;;;;;;;10.83;74.52;101596.55;1658464;85;20939;-82
2021/09/30 04:32:40;;;;;;;2.67;1.37;;;;;;;10.80;74.47;101600.88;1643897;85;21058;-82
2021/09/30 04:35:07;;;;;;;2.55;1.32;;;;;;;10.76;74.54;101591.39;1647913;85;21059;-81
2021/09/30 04:37:32;;;;;;;1.72;1.57;;;;;;;10.75;74.63;101591.82;1650833;85;24040;-83
2021/09/30 04:40:00;;;;;;;1.67;1.42;;;;;;;10.75;74.62;101600.02;1630722;85;21055;-83
2021/09/30 04:42:27;;;;;;;1.57;1.47;;;;;;;10.74;74.64;101603.46;1642405;85;20915;-83
2021/09/30 04:44:53;;;;;;;2.67;1.60;;;;;;;10.72;74.62;101607.77;1644126;85;21604;-83
2021/09/30 04:47:21;;;;;;;4.30;1.40;;;;;;;10.68;74.57;101609.93;1658917;85;21103;-83
2021/09/30 04:49:47;;;;;;;1.77;1.50;;;;;;;10.64;74.61;101610.80;1634132;85;21078;-83
2021/09/30 04:52:13;;;;;;;1.92;1.27;;;;;;;10.58;74.62;101619.41;1618786;86;21639;-83
2021/09/30 04:54:43;;;;;;;2.05;1.45;;;;;;;10.54;74.60;101617.26;1645559;85;21082;-83
2021/09/30 04:57:09;;;;;;;2.20;1.60;;;;;;;10.47;74.60;101620.70;1646395;85;21074;-83
2021/09/30 04:59:35;;;;;;;2.15;1.40;;;;;;;10.42;74.63;101626.30;1644985;85;21400;-83
2021/09/30 05:02:01;;;;;;;2.77;1.30;;;;;;;10.37;74.68;101631.93;1628115;85;21646;-83
2021/09/30 05:04:27;;;;;;;1.53;1.30;;;;;;;10.32;74.61;101637.52;1648016;85;21139;-83
2021/09/30 05:06:55;;;;;;;4.75;1.40;;;;;;;10.26;74.73;101633.63;1651822;85;21022;-83
2021/09/30 05:09:24;;;;;;;1.67;1.57;;;;;;;10.24;74.74;101643.97;1646196;85;21081;-83
2021/09/30 05:11:52;;;;;;;1.75;1.42;;;;;;;10.21;74.75;101643.97;1665804;85;21058;-83
2021/09/30 05:14:18;;;;;;;1.80;1.15;;;;;;;10.16;74.76;101649.52;1644946;85;20944;-83
2021/09/30 05:16:44;;;;;;;3.12;1.47;;;;;;;10.12;74.73;101655.54;1670226;85;20922;-83
2021/09/30 05:19:10;;;;;;;3.87;1.17;;;;;;;10.08;74.75;101657.69;1655930;85;20954;-83
2021/09/30 05:21:37;;;;;;;4.10;1.50;;;;;;;10.04;74.82;101664.13;1656132;85;20978;-83
2021/09/30 05:24:03;;;;;;;2.80;2.25;;;;;;;9.88;74.83;101633.50;1634496;85;21130;-83
2021/09/30 05:26:30;;;;;;;2.42;2.00;;;;;;;9.99;74.87;101654.20;1664284;85;21087;-83
2021/09/30 05:29:00;;;;;;;4.53;1.70;;;;;;;9.98;74.89;101652.48;1645814;85;21055;-83
2021/09/30 05:31:28;;;;;;;3.72;2.00;;;;;;;9.96;74.91;101655.92;1658640;85;21075;-83
2021/09/30 05:33:55;;;;;;;1.77;1.52;;;;;;;9.95;74.90;101648.16;1649324;85;21152;-83
2021/09/30 05:36:22;;;;;;;5.58;1.60;;;;;;;9.93;74.91;101654.62;1655276;85;21082;-83
2021/09/30 05:38:49;;;;;;;3.87;2.05;;;;;;;9.92;74.96;101648.16;1634209;85;23214;-83
2021/09/30 05:41:15;;;;;;;;;;;;;;;9.91;74.98;101642.12;1649345;85;21150;-83
2021/09/30 05:43:47;;;;;;;2.52;1.85;;;;;;;9.92;75.22;101642.56;1641448;85;20117;-83
2021/09/30 05:46:11;;;;;;;4.78;1.62;;;;;;;9.93;75.08;101642.12;1659060;85;21104;-83
2021/09/30 05:48:37;;;;;;;1.92;1.37;;;;;;;9.96;75.05;101645.59;1636121;85;21162;-83
2021/09/30 05:51:03;;;;;;;2.80;1.30;;;;;;;10.01;75.12;101645.60;1643774;85;21781;-83
2021/09/30 05:53:29;;;;;;;3.33;1.53;;;;;;;10.10;75.14;101652.52;1659722;85;20997;-83
2021/09/30 05:55:56;;;;;;;3.40;1.20;;;;;;;10.18;75.13;101657.28;1652999;85;28015;-83
2021/09/30 05:58:22;;;;;;;1.30;1.00;;;;;;;10.23;75.14;101656.46;1649072;85;21561;-83
2021/09/30 06:14:25;;;;;;;2.00;1.17;;;;;;;10.89;75.19;101674.61;1608610;85;21158;-82
2021/09/30 06:16:51;;;;;;;1.95;1.35;;;;;;;11.00;75.13;101674.57;1653775;85;20997;-82
2021/09/30 06:19:22;;;;;;;1.47;1.15;;;;;;;11.06;75.18;101677.16;1648325;85;21068;-82
2021/09/30 06:21:50;;;;;;;2.72;1.40;;;;;;;11.22;75.27;101678.43;1648427;85;20999;-82
2021/09/30 06:24:20;;;;;;;6.55;1.40;;;;;;;11.47;75.34;101678.34;1651290;85;20968;-82
2021/09/30 06:26:46;;;;;;;2.22;1.32;;;;;;;11.73;75.36;101671.80;1660710;85;20942;-82
2021/09/30 06:29:13;;;;;;;2.67;1.32;;;;;;;11.93;75.36;101686.43;1656396;85;20907;-83
2021/09/30 06:31:40;;;;;;;3.05;1.47;;;;;;;12.16;75.36;101687.59;1638214;85;21086;-83
2021/09/30 06:34:06;;;;;;;2.95;1.45;;;;;;;12.43;75.30;101685.70;1650332;85;21024;-83
2021/09/30 06:36:32;;;;;;;1.95;1.22;;;;;;;12.71;75.24;101688.51;1654572;84;21118;-83
2021/09/30 06:38:59;;;;;;;2.77;1.60;;;;;;;13.02;75.29;101694.72;1654455;85;21050;-83
2021/09/30 06:41:28;;;;;;;2.67;1.60;;;;;;;13.27;75.13;101688.45;1654835;85;21077;-83
2021/09/30 06:43:54;;;;;;;4.13;1.73;;;;;;;13.57;75.17;101695.05;1635050;85;20976;-83
2021/09/30 06:46:23;;;;;;;7.03;1.70;;;;;;;13.88;75.12;101691.66;1644617;85;21153;-83
2021/09/30 06:48:49;;;;;;;2.95;1.85;;;;;;;14.21;74.94;101700.73;1644825;85;21139;-83
2021/09/30 06:51:15;;;;;;;3.57;1.27;;;;;;;14.39;74.81;101699.62;1644439;85;21098;-83
2021/09/30 06:53:41;;;;;;;3.10;1.43;;;;;;;14.61;74.89;101699.73;1648260;85;21129;-83
2021/09/30 06:56:10;;;;;;;1.80;1.20;;;;;;;14.75;74.78;101715.14;1639860;85;21132;-83
2021/09/30 06:58:41;;;;;;;1.72;1.05;;;;;;;14.87;74.85;101708.00;1644443;85;21123;-83
2021/09/30 07:01:03;;;;;;;2.33;1.10;;;;;;;15.03;74.88;101715.56;1623578;85;21146;-83
2021/09/30 07:03:29;;;;;;;1.77;1.13;;;;;;;15.24;74.94;101715.16;1603674;87;21177;-83
2021/09/30 07:05:55;;;;;;;3.37;1.10;;;;;;;15.53;75.08;101715.94;1649991;85;21098;-83
2021/09/30 07:08:22;;;;;;;2.75;1.05;;;;;;;15.86;75.29;101715.73;1644911;85;21506;-83
2021/09/30 07:10:50;;;;;;;2.03;0.80;;;;;;;16.08;75.12;101730.50;1653727;85;21092;-83
2021/09/30 07:13:16;;;;;;;4.70;1.07;;;;;;;16.25;75.07;101726.20;1638097;85;21828;-83
2021/09/30 07:15:43;;;;;;;5.42;1.27;;;;;;;16.34;74.69;101732.08;1611262;87;21079;-83
2021/09/30 07:18:12;;;;;;;5.58;1.32;;;;;;;16.31;74.42;101732.15;1650679;84;21167;-83
2021/09/30 07:20:39;;;;;;;1.62;0.80;;;;;;;16.39;74.34;101735.45;1641599;85;20907;-83
2021/09/30 07:23:06;;;;;;;1.95;1.00;;;;;;;16.30;73.90;101742.17;1652700;85;20935;-83
2021/09/30 07:25:34;;;;;;;1.27;1.10;;;;;;;16.16;73.88;101748.99;1642914;85;20907;-83
2021/09/30 07:28:00;;;;;;;3.23;1.27;;;;;;;16.08;73.92;101747.02;1651462;85;20894;-83
2021/09/30 07:30:27;;;;;;;2.72;1.00;;;;;;;16.16;73.91;101750.30;1641546;85;20980;-83
2021/09/30 07:32:53;;;;;;;3.30;1.40;;;;;;;16.29;73.89;101746.13;1664779;85;20922;-83
2021/09/30 07:35:19;;;;;;;3.45;1.20;;;;;;;16.29;73.66;101746.13;1658798;85;20958;-83
2021/09/30 07:37:45;;;;;;;3.30;1.45;;;;;;;16.21;73.48;101747.59;1637613;85;20947;-82
2021/09/30 07:40:15;;;;;;;2.35;1.60;;;;;;;16.29;73.57;101751.34;1650589;85;20986;-83
2021/09/30 07:42:41;;;;;;;1.92;1.05;;;;;;;16.40;73.49;101755.44;1647055;85;21460;-83
2021/09/30 07:45:08;;;;;;;3.75;1.27;;;;;;;16.38;73.22;101754.62;1642496;85;20896;-83
2021/09/30 07:47:34;;;;;;;2.95;1.30;;;;;;;16.23;73.14;101755.80;1642115;85;20935;-82
2021/09/30 07:50:00;;;;;;;2.53;0.97;;;;;;;16.26;73.10;101747.05;1648273;85;21050;-83
2021/09/30 07:52:26;;;;;;;2.40;0.83;;;;;;;16.23;73.10;101754.50;1617885;85;417237;-83
2021/09/30 07:54:52;;;;;;;1.40;0.80;;;;;;;16.27;72.99;101749.22;1615968;87;21090;-83
2021/09/30 07:57:18;;;;;;;2.10;0.77;;;;;;;16.36;72.91;101752.48;1629883;86;21093;-83
2021/09/30 07:59:44;;;;;;;5.30;1.17;;;;;;;16.44;72.70;101751.87;1594015;88;20922;-83
2021/09/30 08:02:10;;;;;;;3.47;1.65;;;;;;;16.43;72.58;101754.52;1587407;88;21090;-83
2021/09/30 08:04:36;;;;;;;3.63;1.00;;;;;;;16.38;72.45;101749.39;1614104;87;21071;-83
2021/09/30 08:07:05;;;;;;;3.37;1.20;;;;;;;16.35;72.40;101755.98;1613054;87;20972;-83
2021/09/30 08:09:30;;;;;;;3.52;0.90;;;;;;;16.28;72.13;101755.70;1617938;87;21117;-83
2021/09/30 08:11:56;;;;;;;6.63;1.70;;;;;;;16.26;71.99;101758.80;1613943;87;20937;-83
2021/09/30 08:14:22;;;;;;;1.90;0.90;;;;;;;16.33;72.00;101755.16;1617368;86;21196;-83
2021/09/30 08:16:49;;;;;;;4.23;1.13;;;;;;;16.36;71.83;101759.45;1617634;87;21080;-83
2021/09/30 08:19:15;;;;;;;2.15;0.82;;;;;;;16.34;71.88;101757.33;1588998;88;21145;-83
2021/09/30 08:21:44;;;;;;;4.08;1.00;;;;;;;16.44;72.16;101762.31;1550444;88;21502;-83
2021/09/30 08:24:11;;;;;;;11.40;1.77;;;;;;;16.78;72.48;101761.56;1550377;90;21580;-83
2021/09/30 08:26:37;;;;;;;1.57;0.72;;;;;;;16.92;72.36;101762.55;1548547;90;21103;-83
2021/09/30 08:29:03;;;;;;;3.40;1.05;;;;;;;17.17;71.79;101767.11;1608643;87;21186;-83
2021/09/30 08:31:30;;;;;;;3.03;1.20;;;;;;;16.85;71.38;101766.61;1597885;88;21127;-83
2021/09/30 08:33:58;;;;;;;2.80;1.17;;;;;;;16.65;71.33;101767.96;1589062;87;21124;-83
2021/09/30 08:36:25;;;;;;;5.90;1.65;;;;;;;16.61;71.51;101776.31;1607716;87;21195;-83
2021/09/30 08:38:51;;;;;;;;;;;;;;;16.84;70.69;101778.41;1602349;87;21519;-84
2021/09/30 08:41:19;;;;;;;3.05;0.90;;;;;;;16.41;69.79;101771.52;1599837;88;20220;-84
2021/09/30 08:43:47;;;;;;;2.55;1.10;;;;;;;15.98;70.15;101778.55;1592674;87;21088;-84
2021/09/30 08:46:14;;;;;;;3.47;1.20;;;;;;;15.77;70.44;101779.81;1602111;87;21103;-84
2021/09/30 08:48:41;;;;;;;4.62;1.22;;;;;;;15.69;70.42;101785.61;1597406;87;21091;-84
2021/09/30 08:51:10;;;;;;;7.83;1.37;;;;;;;15.65;70.31;101786.11;1599702;87;21382;-84
2021/09/30 08:53:37;;;;;;;2.75;1.02;;;;;;;15.59;70.07;101794.08;1605378;87;20955;-84
2021/09/30 08:56:06;;;;;;;2.05;0.98;;;;;;;15.44;69.91;101794.30;1601486;88;20905;-84
2021/09/30 08:58:34;;;;;;;2.47;0.93;;;;;;;15.33;69.67;101800.14;1602838;87;20951;-84
2021/09/30 09:01:07;;;;;;;2.87;1.12;;;;;;;15.17;69.71;101798.22;1591277;88;20952;-84
2021/09/30 09:03:44;;;;;;;4.30;0.90;;;;;;;15.07;69.54;101805.36;1612199;87;20949;-84
2021/09/30 09:06:32;;;;;;;3.25;0.78;;;;;;;14.96;69.56;101792.94;1598758;87;20933;-84
2021/09/30 09:09:23;;;;;;;2.15;1.10;;;;;;;14.89;69.39;101790.00;1609981;87;21479;-84
2021/09/30 09:11:59;;;;;;;4.90;1.10;;;;;;;14.81;69.37;101789.25;1602910;87;20989;-84
2021/09/30 09:14:30;;;;;;;3.02;1.20;;;;;;;14.67;69.10;101795.10;1609258;87;20941;-84
2021/09/30 09:17:07;;;;;;;3.22;1.05;;;;;;;14.60;69.11;101788.25;1608340;87;20973;-83
2021/09/30 09:19:41;;;;;;;2.52;1.02;;;;;;;14.58;69.07;101793.04;1608091;87;21001;-83
2021/09/30 09:22:18;;;;;;;5.87;1.12;;;;;;;14.51;68.90;101801.84;1606753;87;20970;-83
2021/09/30 09:25:07;;;;;;;;;;;;;;;14.46;68.77;101804.09;1612293;86;21394;-83
2021/09/30 09:27:56;;;;;;;4.35;1.00;;;;;;;14.37;68.54;101806.33;1562848;89;20115;-83
2021/09/30 09:30:45;;;;;;;6.35;1.30;;;;;;;14.32;68.77;101802.06;1562420;89;20936;-83
2021/09/30 09:33:23;;;;;;;6.72;1.17;;;;;;;14.31;68.59;101807.70;1573226;89;21438;-83
2021/09/30 09:36:06;;;;;;;2.92;1.10;;;;;;;14.30;68.61;101803.38;1554668;89;20959;-84
2021/09/30 09:38:50;;;;;;;4.08;1.02;;;;;;;14.31;68.57;101797.30;1565648;89;20980;-84
2021/09/30 09:41:38;;;;;;;2.12;1.47;;;;;;;14.35;68.53;101795.52;1565205;89;21767;-84
2021/09/30 09:44:07;;;;;;;3.62;1.40;;;;;;;14.38;68.50;101795.48;1563501;89;20923;-84
2021/09/30 09:46:40;;;;;;;1.90;1.00;;;;;;;14.50;68.56;101794.92;1566911;89;20988;-84
2021/09/30 09:49:12;;;;;;;1.98;1.02;;;;;;;14.65;68.47;101796.86;1552334;89;20948;-84
2021/09/30 09:51:47;;;;;;;3.95;1.25;;;;;;;14.75;68.30;101798.45;1565237;89;20912;-83
2021/09/30 09:54:17;;;;;;;2.08;1.15;;;;;;;14.85;68.26;101794.84;1566000;89;21069;-83
2021/09/30 09:56:45;;;;;;;2.22;1.12;;;;;;;14.93;68.16;101796.03;1568439;89;20925;-83
2021/09/30 09:59:12;;;;;;;5.92;2.55;;;;;;;15.00;68.18;101792.45;1564971;89;20976;-83
2021/09/30 10:01:40;;;;;;;;;;;;;;;15.10;68.14;101792.69;1566917;89;20981;-83
2021/09/30 10:04:08;;;;;;;3.50;0.85;;;;;;;15.22;68.03;101784.23;1559579;90;20116;-84
2021/09/30 10:06:35;;;;;;;;;;;;;;;15.36;68.12;101790.97;1567685;89;21544;-84
2021/09/30 10:09:05;;;;;;;3.92;1.52;;;;;;;15.47;67.70;101799.47;1566899;89;20140;-84
2021/09/30 10:11:32;;;;;;;1.77;1.02;;;;;;;15.42;67.73;101804.76;1560296;89;21516;-84
2021/09/30 10:14:02;;;;;;;2.08;1.17;;;;;;;15.35;67.69;101804.44;1562142;89;20977;-84
2021/09/30 10:16:29;;;;;;;3.22;1.12;;;;;;;15.24;67.63;101811.58;1560763;89;21261;-84
2021/09/30 10:19:03;;;;;;;4.12;0.82;;;;;;;15.18;67.61;101808.62;1560797;89;21719;-84
2021/09/30 10:21:31;;;;;;;5.95;1.20;;;;;;;15.14;67.68;101812.16;1569701;89;21599;-84
2021/09/30 10:24:19;;;;;;;4.05;1.40;;;;;;;15.12;67.57;101804.81;1564682;89;21627;-84
2021/09/30 10:26:57;;;;;;;3.00;1.57;;;;;;;15.17;67.68;101812.55;1558524;89;21087;-84
2021/09/30 10:29:46;;;;;;;2.00;0.88;;;;;;;15.29;67.68;101804.98;1565066;89;21646;-84
2021/09/30 10:32:16;;;;;;;1.50;1.05;;;;;;;15.39;67.57;101815.23;1562357;89;21667;-84
2021/09/30 10:35:01;;;;;;;6.33;2.30;;;;;;;15.39;67.37;101813.07;1566373;89;21397;-84
2021/09/30 10:37:31;;;;;;;6.40;1.53;;;;;;;15.34;67.31;101819.66;1562127;89;21507;-84
2021/09/30 10:40:19;;;;;;;28.38;3.10;;;;;;;15.28;67.18;101824.11;1567747;89;21544;-84
2021/09/30 10:43:00;;;;;;;3.17;0.90;;;;;;;15.17;67.19;101819.93;1567976;89;20914;-84
2021/09/30 10:45:39;;;;;;;4.08;1.10;;;;;;;15.05;67.14;101820.15;1561545;89;21539;-84
2021/09/30 10:48:07;;;;;;;4.35;1.30;;;;;;;15.03;67.19;101824.52;1558144;89;21548;-84
2021/09/30 10:50:45;;;;;;;4.25;0.80;;;;;;;15.03;67.19;101819.31;1567168;89;21555;-84
2021/09/30 10:53:12;;;;;;;2.55;0.90;;;;;;;15.08;67.19;101822.67;1564144;89;21433;-84
2021/09/30 10:55:38;;;;;;;8.53;0.90;;;;;;;15.22;67.25;101825.93;1564985;89;21433;-84
2021/09/30 10:58:15;;;;;;;2.73;0.80;;;;;;;15.35;67.10;101824.44;1556564;89;20924;-84
2021/09/30 11:00:48;;;;;;;2.30;0.80;;;;;;;15.43;66.95;101822.56;1572360;89;22198;-84
2021/09/30 11:03:23;;;;;;;3.83;0.90;;;;;;;15.51;66.93;101825.45;1563060;89;20924;-83
2021/09/30 11:06:12;;;;;;;3.05;1.00;;;;;;;15.65;66.90;101826.97;1559941;89;21565;-83
2021/09/30 11:08:38;;;;;;;3.87;0.95;;;;;;;15.78;66.92;101825.42;1552830;89;20988;-84
2021/09/30 11:11:09;;;;;;;6.37;1.40;;;;;;;15.94;66.86;101826.45;1564490;89;21507;-84
2021/09/30 11:13:46;;;;;;;5.58;1.00;;;;;;;16.08;66.77;101830.96;1546455;91;21001;-83
2021/09/30 11:16:17;;;;;;;2.33;0.70;;;;;;;16.16;66.63;101835.11;1542975;91;21631;-83
2021/09/30 11:18:57;;;;;;;2.55;0.75;;;;;;;16.22;66.59;101823.69;1568312;89;21479;-83
2021/09/30 11:21:37;;;;;;;7.37;1.10;;;;;;;16.29;66.47;101821.38;1564572;89;21413;-83
2021/09/30 11:24:11;;;;;;;2.30;0.95;;;;;;;16.34;66.43;101829.11;1566621;89;21003;-83
2021/09/30 11:26:54;;;;;;;4.20;0.90;;;;;;;16.40;66.46;101823.77;1584105;88;21453;-83
2021/09/30 11:29:28;;;;;;;5.08;0.90;;;;;;;16.49;66.35;101823.13;1590456;88;20963;-83
2021/09/30 11:32:01;;;;;;;2.85;1.02;;;;;;;16.55;66.30;101829.53;1630114;87;21026;-83
2021/09/30 11:34:46;;;;;;;10.90;1.12;;;;;;;16.65;66.27;101827.58;1623575;87;21442;-84
2021/09/30 11:37:32;;;;;;;3.12;0.90;;;;;;;16.68;66.05;101835.35;1630855;87;21629;-84
2021/09/30 11:40:00;;;;;;;2.87;0.50;;;;;;;16.62;65.99;101831.56;1618912;87;21059;-83
2021/09/30 11:42:43;;;;;;;2.30;0.88;;;;;;;16.59;65.95;101831.62;1615175;87;21652;-83
2021/09/30 11:45:17;;;;;;;2.20;0.60;;;;;;;16.55;65.86;101832.59;1408873;85;20012882;-83
2021/09/30 11:47:45;;;;;;;3.00;1.02;;;;;;;16.50;65.88;101832.68;1653199;85;21448;-85
2021/09/30 11:50:25;;;;;;;2.22;0.82;;;;;;;16.47;65.78;101822.30;1656227;85;21019;-82
2021/09/30 11:53:10;;;;;;;5.65;1.15;;;;;;;16.46;65.78;101824.50;1655862;85;21031;-82
2021/09/30 11:55:41;;;;;;;2.72;0.88;;;;;;;16.54;65.82;101830.42;1652061;85;21684;-82
2021/09/30 11:58:16;;;;;;;1.80;0.60;;;;;;;16.63;65.59;101833.28;1654563;85;21543;-82
2021/09/30 12:00:46;;;;;;;4.87;0.82;;;;;;;16.59;65.39;101835.55;1653133;85;21606;-81
2021/09/30 12:03:14;;;;;;;3.95;0.93;;;;;;;16.52;65.23;101843.95;1621615;86;21130;-82
2021/09/30 12:05:40;;;;;;;3.67;0.70;;;;;;;16.39;65.21;101845.55;1630817;86;21071;-82
2021/09/30 12:08:08;;;;;;;2.80;0.87;;;;;;;16.30;65.08;101836.14;1627428;86;21135;-82
2021/09/30 12:10:39;;;;;;;1.32;0.70;;;;;;;16.18;65.05;101839.00;1630325;86;21059;-82
2021/09/30 12:13:20;;;;;;;2.30;0.60;;;;;;;16.11;65.03;101836.98;1625054;86;21301;-82
2021/09/30 12:15:48;;;;;;;4.37;0.70;;;;;;;16.04;64.99;101828.86;1625151;86;21002;-82
2021/09/30 12:18:22;;;;;;;2.60;0.72;;;;;;;15.99;64.96;101831.99;1624944;86;20995;-82
2021/09/30 12:20:57;;;;;;;4.90;1.00;;;;;;;15.97;64.91;101824.64;1648738;85;20879;-81
2021/09/30 12:23:24;;;;;;;3.62;0.82;;;;;;;15.95;64.86;101827.72;1653066;85;20897;-81
2021/09/30 12:25:51;;;;;;;3.02;0.90;;;;;;;15.98;64.89;101830.72;1609596;86;20993;-81
2021/09/30 12:28:17;;;;;;;3.55;0.62;;;;;;;16.07;64.80;101823.58;1585928;88;20997;-81
2021/09/30 12:30:43;;;;;;;5.60;0.70;;;;;;;16.17;64.74;101826.84;1600053;88;21167;-82
2021/09/30 12:33:10;;;;;;;3.80;0.80;;;;;;;16.26;64.58;101825.80;1597183;88;21446;-82
2021/09/30 12:35:41;;;;;;;2.58;0.70;;;;;;;16.27;64.35;101833.59;1601398;88;21017;-82
2021/09/30 12:38:18;;;;;;;3.83;0.65;;;;;;;16.18;64.17;101835.08;1596744;88;20893;-82
2021/09/30 12:40:49;;;;;;;1.20;0.57;;;;;;;16.10;64.13;101840.92;1597068;88;20937;-82
2021/09/30 12:43:20;;;;;;;2.00;0.60;;;;;;;16.00;64.14;101831.55;1599274;88;20913;-82
2021/09/30 12:46:00;;;;;;;1.45;0.53;;;;;;;15.95;64.15;101836.86;1588957;88;20989;-81
2021/09/30 12:48:31;;;;;;;4.00;0.50;;;;;;;15.92;64.10;101830.39;1601625;88;20917;-81
2021/09/30 12:51:12;;;;;;;2.52;1.10;;;;;;;15.86;64.00;101833.97;1599210;88;20870;-81
2021/09/30 12:53:49;;;;;;;4.35;1.00;;;;;;;15.74;63.91;101832.88;1597658;88;20955;-84
2021/09/30 12:56:21;;;;;;;3.33;0.60;;;;;;;15.67;63.94;101838.23;1592520;88;20897;-81
2021/09/30 12:58:50;;;;;;;5.35;0.80;;;;;;;15.62;63.94;101827.02;1596376;88;21421;-81
2021/09/30 13:01:25;;;;;;;3.42;0.65;;;;;;;15.59;63.86;101829.72;1605608;88;20881;-81
2021/09/30 13:04:09;;;;;;;1.92;0.40;;;;;;;15.60;63.88;101824.44;1595670;88;20985;-81
2021/09/30 13:06:40;;;;;;;2.40;0.90;;;;;;;15.71;63.87;101829.02;1634366;86;20946;-81
2021/09/30 13:09:26;;;;;;;2.15;0.93;;;;;;;15.88;63.71;101826.11;1628223;86;20944;-82
2021/09/30 13:11:56;;;;;;;2.85;0.70;;;;;;;16.03;63.54;101818.45;1637702;86;25221;-81
2021/09/30 13:14:33;;;;;;;5.00;0.70;;;;;;;16.15;63.46;101818.17;1634506;86;20897;-81
2021/09/30 13:17:13;;;;;;;2.25;0.88;;;;;;;16.23;63.00;101818.44;1627915;86;20946;-81
2021/09/30 13:19:51;;;;;;;3.33;0.75;;;;;;;16.28;63.09;101817.48;1631054;86;20921;-81
2021/09/30 13:22:22;;;;;;;5.33;0.82;;;;;;;16.27;63.02;101814.02;1633870;86;20937;-81
2021/09/30 13:24:51;;;;;;;2.40;0.78;;;;;;;16.29;63.00;101823.13;1635938;86;20946;-82
2021/09/30 13:27:21;;;;;;;2.10;0.70;;;;;;;16.31;62.99;101827.42;1644791;85;20945;-81
2021/09/30 13:29:48;;;;;;;4.75;0.68;;;;;;;16.24;62.89;101823.22;1655219;85;21003;-81
2021/09/30 13:32:17;;;;;;;4.67;0.70;;;;;;;16.17;62.86;101822.48;1651198;85;20972;-81
2021/09/30 13:34:50;;;;;;;1.60;0.80;;;;;;;16.09;62.83;101823.55;1633538;86;20929;-81
2021/09/30 13:37:17;;;;;;;3.90;0.70;;;;;;;16.04;62.81;101820.17;1627908;86;21680;-81
2021/09/30 13:39:43;;;;;;;3.83;0.95;;;;;;;16.02;62.82;101824.55;1621526;86;20924;-81
2021/09/30 13:42:11;;;;;;;1.12;0.47;;;;;;;16.01;62.75;101831.52;1629321;86;20945;-81
2021/09/30 13:44:37;;;;;;;5.75;0.78;;;;;;;15.98;62.61;101833.33;1625661;86;20968;-81
2021/09/30 13:47:05;;;;;;;2.10;0.60;;;;;;;15.91;62.56;101824.75;1623615;86;21513;-81
2021/09/30 13:49:31;;;;;;;1.95;0.55;;;;;;;15.88;62.58;101830.89;1627458;86;20960;-81
2021/09/30 13:51:58;;;;;;;3.50;0.93;;;;;;;15.84;62.47;101833.14;1620545;86;20927;-81
2021/09/30 13:54:25;;;;;;;6.47;0.90;;;;;;;15.80;62.44;101837.13;1627959;86;21400;-81
2021/09/30 13:56:51;;;;;;;8.53;0.70;;;;;;;15.79;62.37;101837.58;1622736;86;20892;-82
2021/09/30 13:59:23;;;;;;;4.00;0.72;;;;;;;15.78;62.37;101835.86;1653137;85;20920;-82
2021/09/30 14:01:49;;;;;;;2.17;0.60;;;;;;;15.79;62.35;101832.80;1625615;86;20968;-82
2021/09/30 14:04:15;;;;;;;3.50;0.90;;;;;;;15.79;62.21;101830.20;1603167;86;20915;-82
2021/09/30 14:06:41;;;;;;;3.20;0.70;;;;;;;15.77;62.19;101828.92;1627983;86;20980;-82
2021/09/30 14:09:07;;;;;;;2.83;0.67;;;;;;;15.76;62.17;101827.20;1616729;86;21003;-82
2021/09/30 14:11:33;;;;;;;2.47;1.00;;;;;;;15.75;62.06;101826.78;1608202;88;20968;-82
2021/09/30 14:13:59;;;;;;;4.77;1.50;;;;;;;15.76;62.09;101827.64;1625103;86;20968;-82
2021/09/30 14:16:26;;;;;;;3.10;1.13;;;;;;;15.77;62.00;101830.22;1617420;86;21023;-82
2021/09/30 14:18:53;;;;;;;4.60;1.30;;;;;;;15.79;62.00;101832.80;1624931;86;22862;-82
2021/09/30 14:21:20;;;;;;;;;;;;;;;15.81;61.97;101833.63;1623115;86;20947;-82
2021/09/30 14:23:47;;;;;;;4.45;0.60;;;;;;;15.82;61.58;101836.66;1637273;86;20453;-82
2021/09/30 14:26:13;;;;;;;4.53;0.60;;;;;;;15.82;61.81;101842.73;1617092;86;20969;-82
2021/09/30 14:28:40;;;;;;;1.33;0.50;;;;;;;15.79;61.75;101833.66;1599727;88;20961;-81
2021/09/30 14:31:06;;;;;;;5.72;0.90;;;;;;;15.78;61.66;101838.46;1597926;88;28053;-82
2021/09/30 14:33:36;;;;;;;3.95;1.20;;;;;;;15.76;61.62;101836.77;1599100;88;20957;-82